createdAt,value
2018-09-29T00:01:41.442Z,14.10
2018-09-29T00:06:36.690Z,14.20
2018-09-29T00:11:31.545Z,14.10
2018-09-29T00:16:26.428Z,14.00
2018-09-29T00:21:21.283Z,13.90
2018-09-29T00:26:16.225Z,13.80
2018-09-29T00:31:11.074Z,13.80
2018-09-29T00:36:06.232Z,13.80
2018-09-29T00:41:01.065Z,13.70
2018-09-29T00:45:56.070Z,13.80
2018-09-29T00:50:50.938Z,13.80
2018-09-29T00:55:45.901Z,13.70
2018-09-29T01:00:40.810Z,13.60
2018-09-29T01:05:35.624Z,13.60
2018-09-29T01:10:30.457Z,13.60
2018-09-29T01:15:25.473Z,13.50
2018-09-29T01:20:20.323Z,13.40
2018-09-29T01:25:15.287Z,13.40
2018-09-29T01:30:10.119Z,13.30
2018-09-29T01:35:05.767Z,13.30
2018-09-29T01:40:00.589Z,13.30
2018-09-29T01:44:55.451Z,13.20
2018-09-29T01:49:50.288Z,13.00
2018-09-29T01:54:45.126Z,13.00
2018-09-29T01:59:39.953Z,13.00
2018-09-29T02:04:34.766Z,13.00
2018-09-29T02:09:29.669Z,13.00
2018-09-29T02:14:24.477Z,13.00
2018-09-29T02:19:19.311Z,13.00
2018-09-29T02:24:14.208Z,12.90
2018-09-29T02:29:09.181Z,12.80
2018-09-29T02:34:04.127Z,12.90
2018-09-29T02:38:59.071Z,12.90
2018-09-29T02:43:53.925Z,12.90
2018-09-29T02:48:48.802Z,12.80
2018-09-29T02:53:43.783Z,12.70
2018-09-29T02:58:38.618Z,12.70
2018-09-29T03:03:34.126Z,12.60
2018-09-29T03:08:29.003Z,12.60
2018-09-29T03:13:24.190Z,12.50
2018-09-29T03:18:19.004Z,12.40
2018-09-29T03:23:14.505Z,12.40
2018-09-29T03:28:09.286Z,12.20
2018-09-29T03:33:04.098Z,12.10
2018-09-29T03:37:59.678Z,12.10
2018-09-29T03:42:54.517Z,12.10
2018-09-29T03:47:49.558Z,12.10
2018-09-29T03:52:44.382Z,11.80
2018-09-29T03:57:39.272Z,12.00
2018-09-29T04:02:34.172Z,12.00
2018-09-29T04:07:29.012Z,12.00
2018-09-29T04:12:23.870Z,11.90
2018-09-29T04:17:18.785Z,11.80
2018-09-29T04:22:13.613Z,11.80
2018-09-29T04:27:08.440Z,11.80
2018-09-29T04:32:05.240Z,11.60
2018-09-29T04:37:00.557Z,11.60
2018-09-29T04:41:55.414Z,11.60
2018-09-29T04:46:50.174Z,11.50
2018-09-29T04:51:45.014Z,11.30
2018-09-29T04:56:39.826Z,11.30
2018-09-29T05:01:34.709Z,11.10
2018-09-29T05:06:30.639Z,11.20
2018-09-29T05:11:26.301Z,11.20
2018-09-29T05:16:21.157Z,11.20
2018-09-29T05:21:16.400Z,11.20
2018-09-29T05:26:12.498Z,11.10
2018-09-29T05:31:07.321Z,11.00
2018-09-29T05:36:02.169Z,11.00
2018-09-29T05:40:58.019Z,11.10
2018-09-29T05:45:52.917Z,11.20
2018-09-29T05:50:47.790Z,11.30
2018-09-29T05:55:42.614Z,11.40
2018-09-29T06:00:37.585Z,11.30
2018-09-29T06:05:32.444Z,11.40
2018-09-29T06:10:27.514Z,11.40
2018-09-29T06:15:22.366Z,11.40
2018-09-29T06:20:17.367Z,11.30
2018-09-29T06:25:12.214Z,11.40
2018-09-29T06:30:07.341Z,11.40
2018-09-29T06:35:02.201Z,11.40
2018-09-29T06:39:57.287Z,11.40
2018-09-29T06:44:52.140Z,11.40
2018-09-29T06:49:46.988Z,11.40
2018-09-29T06:54:41.911Z,11.30
2018-09-29T06:59:40.960Z,11.10
2018-09-29T07:04:35.915Z,11.10
2018-09-29T07:09:31.022Z,11.20
2018-09-29T07:14:25.932Z,11.20
2018-09-29T07:19:20.796Z,11.20
2018-09-29T07:24:15.692Z,11.30
2018-09-29T07:29:11.091Z,11.40
2018-09-29T07:34:06.121Z,11.70
2018-09-29T07:39:01.122Z,11.70
2018-09-29T07:43:56.070Z,11.70
2018-09-29T07:48:51.045Z,12.10
2018-09-29T07:53:47.247Z,12.20
2018-09-29T07:58:42.153Z,12.40
2018-09-29T08:03:37.855Z,12.40
2018-09-29T08:08:32.823Z,12.30
2018-09-29T08:13:27.714Z,12.50
2018-09-29T08:18:22.594Z,12.70
2018-09-29T08:23:17.645Z,12.90
2018-09-29T08:28:12.596Z,13.00
2018-09-29T08:33:07.749Z,12.90
2018-09-29T08:38:02.618Z,13.10
2018-09-29T08:42:57.481Z,13.20
2018-09-29T08:47:52.289Z,13.40
2018-09-29T08:52:47.264Z,13.60
2018-09-29T08:57:42.244Z,13.70
2018-09-29T09:02:37.168Z,14.00
2018-09-29T09:07:38.525Z,14.00
2018-09-29T09:12:33.832Z,13.90
2018-09-29T09:17:29.315Z,13.90
2018-09-29T09:22:24.173Z,14.00
2018-09-29T09:27:19.261Z,14.40
2018-09-29T09:32:15.899Z,14.60
2018-09-29T09:37:10.814Z,14.70
2018-09-29T09:42:06.089Z,14.80
2018-09-29T09:47:01.299Z,14.90
2018-09-29T09:51:56.553Z,15.00
2018-09-29T09:56:51.449Z,14.90
2018-09-29T10:01:51.262Z,15.00
2018-09-29T10:06:51.268Z,15.20
2018-09-29T10:11:46.324Z,15.30
2018-09-29T10:16:41.495Z,15.40
2018-09-29T10:21:36.585Z,15.30
2018-09-29T10:26:31.760Z,15.30
2018-09-29T10:31:27.429Z,15.40
2018-09-29T10:36:22.545Z,15.30
2018-09-29T10:41:17.425Z,15.40
2018-09-29T10:46:12.509Z,15.50
2018-09-29T10:51:07.770Z,15.60
2018-09-29T10:56:02.700Z,15.60
2018-09-29T11:00:57.558Z,15.60
2018-09-29T11:05:52.467Z,15.60
2018-09-29T11:10:48.223Z,15.60
2018-09-29T11:15:43.516Z,15.50
2018-09-29T11:20:39.823Z,15.50
2018-09-29T11:25:39.738Z,15.50
2018-09-29T11:30:34.682Z,15.50
2018-09-29T11:35:30.182Z,15.50
2018-09-29T11:40:25.157Z,15.60
2018-09-29T11:45:20.224Z,15.90
2018-09-29T11:50:15.172Z,15.80
2018-09-29T11:55:10.097Z,15.70
2018-09-29T12:00:06.578Z,15.70
2018-09-29T12:05:02.390Z,16.00
2018-09-29T12:09:58.090Z,16.20
2018-09-29T12:14:53.890Z,16.40
2018-09-29T12:19:50.499Z,16.40
2018-09-29T12:24:45.511Z,16.50
2018-09-29T12:29:40.443Z,16.60
2018-09-29T12:34:35.903Z,16.50
2018-09-29T12:39:33.818Z,16.60
2018-09-29T12:44:31.560Z,16.70
2018-09-29T12:49:26.700Z,16.70
2018-09-29T12:54:22.215Z,16.80
2018-09-29T12:59:17.399Z,16.80
2018-09-29T13:04:12.308Z,16.90
2018-09-29T13:09:09.118Z,16.90
2018-09-29T13:14:04.579Z,16.80
2018-09-29T13:18:59.764Z,16.80
2018-09-29T13:23:54.857Z,16.80
2018-09-29T13:28:50.550Z,16.90
2018-09-29T13:33:46.990Z,16.80
2018-09-29T13:38:42.099Z,16.90
2018-09-29T13:43:37.070Z,16.90
2018-09-29T13:48:32.470Z,16.80
2018-09-29T13:53:27.401Z,16.80
2018-09-29T13:58:22.840Z,16.80
2018-09-29T14:03:18.987Z,16.80
2018-09-29T14:08:13.960Z,16.80
2018-09-29T14:13:09.057Z,17.00
2018-09-29T14:18:04.037Z,17.00
2018-09-29T14:23:00.832Z,16.90
2018-09-29T14:27:55.831Z,16.90
2018-09-29T14:32:51.046Z,17.00
2018-09-29T14:37:47.606Z,16.90
2018-09-29T14:42:43.348Z,16.90
2018-09-29T14:47:38.398Z,16.90
2018-09-29T14:52:33.605Z,16.90
2018-09-29T14:57:30.353Z,16.80
2018-09-29T15:02:25.667Z,16.80
2018-09-29T15:07:21.428Z,16.80
2018-09-29T15:12:16.624Z,16.70
2018-09-29T15:17:11.807Z,16.80
2018-09-29T15:22:06.928Z,16.70
2018-09-29T15:27:02.106Z,16.70
2018-09-29T15:31:58.113Z,16.70
2018-09-29T15:36:53.238Z,16.70
2018-09-29T15:41:48.910Z,16.70
2018-09-29T15:46:45.664Z,16.60
2018-09-29T15:51:40.797Z,16.50
2018-09-29T15:56:35.984Z,16.30
2018-09-29T16:01:31.577Z,16.30
2018-09-29T16:06:26.469Z,16.30
2018-09-29T16:11:21.614Z,16.10
2018-09-29T16:16:16.503Z,16.10
2018-09-29T16:21:11.441Z,16.00
2018-09-29T16:26:06.675Z,15.90
2018-09-29T16:31:01.678Z,15.80
2018-09-29T16:35:56.614Z,15.70
2018-09-29T16:40:51.614Z,15.60
2018-09-29T16:45:46.640Z,15.50
2018-09-29T16:50:41.613Z,15.50
2018-09-29T16:55:36.624Z,15.40
2018-09-29T17:00:31.703Z,15.40
2018-09-29T17:05:27.423Z,15.30
2018-09-29T17:10:22.509Z,15.40
2018-09-29T17:15:17.795Z,15.20
2018-09-29T17:20:12.912Z,15.20
2018-09-29T17:25:08.188Z,15.10
2018-09-29T17:30:03.241Z,15.00
2018-09-29T17:34:58.225Z,14.90
2018-09-29T17:39:53.227Z,14.90
2018-09-29T17:44:48.311Z,14.80
2018-09-29T17:49:43.294Z,14.80
2018-09-29T17:54:38.222Z,14.70
2018-09-29T17:59:33.199Z,14.70
2018-09-29T18:04:28.876Z,14.60
2018-09-29T18:09:23.794Z,14.70
2018-09-29T18:14:19.456Z,14.60
2018-09-29T18:19:14.469Z,14.60
2018-09-29T18:24:09.677Z,14.50
2018-09-29T18:29:05.366Z,14.50
2018-09-29T18:34:00.682Z,14.40
2018-09-29T18:38:57.337Z,14.40
2018-09-29T18:43:59.786Z,14.40
2018-09-29T18:48:54.663Z,14.40
2018-09-29T18:53:51.789Z,14.40
2018-09-29T18:58:46.797Z,14.40
2018-09-29T19:03:44.797Z,14.40
2018-09-29T19:08:40.335Z,14.20
2018-09-29T19:13:36.642Z,14.10
2018-09-29T19:18:33.555Z,14.10
2018-09-29T19:23:29.518Z,14.10
2018-09-29T19:28:24.640Z,14.00
2018-09-29T19:33:19.587Z,13.90
2018-09-29T19:38:14.777Z,13.90
2018-09-29T19:43:09.898Z,13.80
2018-09-29T19:48:04.954Z,13.80
2018-09-29T19:52:59.971Z,13.70
2018-09-29T19:57:55.329Z,13.50
2018-09-29T20:02:50.812Z,13.30
2018-09-29T20:07:45.836Z,13.30
2018-09-29T20:12:41.432Z,13.30
2018-09-29T20:17:37.067Z,13.20
2018-09-29T20:22:32.204Z,13.10
2018-09-29T20:27:27.155Z,13.00
2018-09-29T20:32:23.130Z,13.00
2018-09-29T20:37:18.091Z,12.90
2018-09-29T20:42:13.693Z,12.80
2018-09-29T20:47:08.594Z,12.70
2018-09-29T20:52:04.284Z,12.50
2018-09-29T20:56:59.352Z,12.40
2018-09-29T21:01:54.852Z,12.40
2018-09-29T21:06:49.906Z,12.30
2018-09-29T21:11:44.848Z,12.30
2018-09-29T21:16:39.893Z,12.20
2018-09-29T21:21:34.892Z,12.10
2018-09-29T21:26:30.014Z,12.10
2018-09-29T21:31:24.990Z,12.10
2018-09-29T21:36:20.056Z,11.90
2018-09-29T21:41:15.013Z,11.70
2018-09-29T21:46:09.971Z,11.70
2018-09-29T21:51:04.987Z,11.50
2018-09-29T21:55:59.915Z,11.50
2018-09-29T22:00:54.881Z,11.40
2018-09-29T22:05:49.897Z,11.30
2018-09-29T22:10:45.150Z,11.20
2018-09-29T22:15:40.146Z,11.20
2018-09-29T22:20:35.093Z,11.10
2018-09-29T22:25:29.995Z,11.10
2018-09-29T22:30:25.813Z,11.00
2018-09-29T22:35:20.778Z,10.90
2018-09-29T22:40:15.701Z,11.00
2018-09-29T22:45:10.752Z,10.80
2018-09-29T22:50:06.166Z,10.60
2018-09-29T22:55:01.085Z,10.70
2018-09-29T22:59:56.773Z,10.50
2018-09-29T23:04:51.764Z,10.60
2018-09-29T23:09:46.857Z,10.40
2018-09-29T23:14:41.771Z,10.40
2018-09-29T23:19:36.818Z,10.20
2018-09-29T23:24:31.820Z,10.10
2018-09-29T23:29:27.795Z,10.10
2018-09-29T23:34:22.758Z,10.10
2018-09-29T23:39:18.359Z,10.10
2018-09-29T23:44:13.369Z,9.90
2018-09-29T23:49:08.435Z,10.00
2018-09-29T23:54:03.407Z,10.00
2018-09-29T23:58:58.274Z,10.00
